Time;durP1;ratioP1;P1;durP2;ratioP2;P2;SDS_P1;SDS_P2;PMS_P1;PMS_P2;Temp;Humidity;BMP_temperature;BMP_pressure;BME280_temperature;BME280_humidity;BME280_pressure;Samples;Min_cycle;Max_cycle;Signal;HPM_P1;HPM_P2
2024/01/23 12:43:23;;;;;;;6.80;3.10;;;;;;;8.39;62.03;102236.17;102496;1295;600940;-54
2024/01/23 12:45:52;;;;;;;3.80;2.50;;;;;;;8.36;61.19;102240.81;104788;1266;60877;-53
2024/01/23 12:48:22;;;;;;;6.10;3.40;;;;;;;8.33;60.66;102240.19;104580;1267;60771;-53
2024/01/23 12:50:50;;;;;;;7.20;2.10;;;;;;;8.31;60.29;102239.27;104619;1265;71676;-58
2024/01/23 12:53:18;;;;;;;4.40;2.70;;;;;;;8.29;59.81;102231.19;104637;1266;73691;-58
2024/01/23 12:55:53;;;;;;;8.10;2.50;;;;;;;8.27;59.46;102224.16;104382;1267;256691;-58
2024/01/23 12:58:21;;;;;;;5.80;2.40;;;;;;;8.27;59.24;102221.19;104745;1264;59836;-57
2024/01/23 13:00:49;;;;;;;5.00;2.50;;;;;;;8.28;58.99;102221.36;104792;1263;59569;-57
2024/01/23 13:03:17;;;;;;;5.20;2.20;;;;;;;8.27;58.76;102226.42;104720;1267;72129;-58
2024/01/23 13:05:45;;;;;;;6.60;2.90;;;;;;;8.30;58.63;102228.05;104736;1264;73093;-57
2024/01/23 13:08:16;;;;;;;5.50;2.60;;;;;;;8.33;58.29;102232.34;104712;1266;74239;-56
2024/01/23 13:10:44;;;;;;;5.90;2.50;;;;;;;8.34;58.21;102229.54;104740;1264;59754;-57
2024/01/23 13:13:12;;;;;;;3.90;2.20;;;;;;;8.34;58.05;102227.64;104785;1263;60335;-59
2024/01/23 13:15:42;;;;;;;6.90;2.50;;;;;;;8.34;57.88;102228.17;104734;1268;72986;-59
2024/01/23 13:18:11;;;;;;;3.00;1.90;;;;;;;8.33;57.78;102231.11;104333;1268;72009;-58
2024/01/23 13:20:39;;;;;;;3.80;2.30;;;;;;;8.33;57.61;102229.88;105495;1253;73454;-59
2024/01/23 13:23:07;;;;;;;3.80;2.10;;;;;;;8.30;57.52;102227.73;105507;1253;59645;-58
2024/01/23 13:25:35;;;;;;;3.80;2.20;;;;;;;8.26;57.49;102233.04;105394;1251;60370;-59
2024/01/23 13:28:03;;;;;;;4.50;2.00;;;;;;;8.23;57.46;102231.39;105414;1256;73685;-59
2024/01/23 13:30:33;;;;;;;6.90;2.20;;;;;;;8.18;57.47;102228.12;105585;1251;72566;-58
2024/01/23 13:33:07;;;;;;;3.70;2.10;;;;;;;8.15;57.54;102227.69;105489;1250;73495;-57
2024/01/23 13:38:56;;;;;;;3.80;2.20;;;;;;;8.15;57.58;102225.92;102234;1293;600477;-57
2024/01/23 13:41:24;;;;;;;4.10;2.00;;;;;;;8.13;57.56;102224.84;104516;1272;59603;-60
2024/01/23 13:43:52;;;;;;;4.50;2.40;;;;;;;8.14;57.61;102221.02;105182;1260;60690;-55
2024/01/23 13:46:20;;;;;;;5.20;2.30;;;;;;;8.13;57.56;102218.71;104899;1260;72484;-56
2024/01/23 13:48:48;;;;;;;5.10;3.00;;;;;;;8.13;57.59;102220.47;105013;1270;72602;-56
2024/01/23 13:51:16;;;;;;;6.00;1.90;;;;;;;8.14;57.60;102223.98;105078;1257;72943;-53
2024/01/23 13:53:44;;;;;;;4.50;2.20;;;;;;;8.10;57.52;102222.51;105157;1258;265811;-52
2024/01/23 13:56:12;;;;;;;5.10;2.20;;;;;;;8.07;57.55;102225.03;105195;1257;59839;-52
2024/01/23 13:58:40;;;;;;;5.60;2.60;;;;;;;8.08;58.23;102228.74;105566;1255;72002;-53
2024/01/23 14:01:07;;;;;;;7.40;3.00;;;;;;;8.15;60.36;102232.93;105166;1254;73052;-57
2024/01/23 14:03:36;;;;;;;4.70;2.80;;;;;;;8.23;61.03;102224.94;105413;1256;73257;-56
2024/01/23 14:06:04;;;;;;;6.20;2.60;;;;;;;8.30;60.74;102222.98;105273;1254;61193;-57
2024/01/23 14:08:38;;;;;;;5.10;2.70;;;;;;;8.34;60.34;102219.93;105107;1260;60799;-56
2024/01/23 14:11:07;;;;;;;5.70;2.60;;;;;;;8.38;59.73;102218.48;105255;1252;73686;-56
2024/01/23 14:13:36;;;;;;;4.30;2.50;;;;;;;8.42;59.17;102215.25;105418;1254;73032;-54
2024/01/23 14:16:04;;;;;;;6.70;2.50;;;;;;;8.43;58.52;102207.95;105321;1258;73437;-56
2024/01/23 14:18:32;;;;;;;3.60;2.20;;;;;;;8.43;58.11;102209.32;105167;1257;60385;-57
2024/01/23 14:21:00;;;;;;;7.60;2.20;;;;;;;8.42;57.94;102208.80;105312;1260;60573;-57
2024/01/23 14:23:28;;;;;;;5.80;2.20;;;;;;;8.43;57.56;102212.52;106371;1260;72642;-56
2024/01/23 14:25:56;;;;;;;4.10;2.20;;;;;;;8.42;57.38;102206.16;105229;1257;75190;-57
2024/01/23 14:28:26;;;;;;;6.40;2.80;;;;;;;8.42;57.21;102202.67;105262;1254;74213;-56
2024/01/23 14:30:55;;;;;;;4.40;2.20;;;;;;;8.42;57.08;102202.85;105486;1254;60533;-57
2024/01/23 14:33:23;;;;;;;4.40;2.50;;;;;;;8.41;56.91;102200.89;105465;1257;60167;-57
2024/01/23 14:35:52;;;;;;;4.70;1.90;;;;;;;8.39;56.83;102205.39;105679;1254;75505;-56
2024/01/23 14:38:19;;;;;;;5.90;2.00;;;;;;;8.41;56.82;102207.00;106765;1254;73634;-58
2024/01/23 14:40:48;;;;;;;3.80;1.90;;;;;;;8.40;56.69;102202.45;105276;1257;73434;-58
2024/01/23 14:43:16;;;;;;;5.30;2.30;;;;;;;8.40;56.51;102205.75;109191;1253;60378;-58
2024/01/23 14:45:44;;;;;;;3.70;2.00;;;;;;;8.38;56.46;102211.48;109323;1254;60404;-58
2024/01/23 14:48:12;;;;;;;7.20;2.60;;;;;;;8.36;56.53;102206.36;109310;1253;72034;-59
2024/01/23 14:50:41;;;;;;;6.30;2.30;;;;;;;8.35;56.38;102212.46;108751;1253;72909;-58
2024/01/23 14:53:09;;;;;;;3.50;2.00;;;;;;;8.34;56.31;102208.94;108988;1253;72549;-59
2024/01/23 14:55:37;;;;;;;5.80;2.00;;;;;;;8.34;56.28;102209.63;109212;1253;57776;-59
2024/01/23 14:58:04;;;;;;;6.70;2.00;;;;;;;8.34;56.40;102212.23;109174;1254;59676;-55
2024/01/23 15:00:32;;;;;;;5.80;2.30;;;;;;;8.35;56.28;102215.62;109198;1253;73476;-53
2024/01/23 15:03:00;;;;;;;5.80;2.20;;;;;;;8.38;56.27;102214.98;109187;1253;73199;-54
2024/01/23 15:05:29;;;;;;;5.70;1.90;;;;;;;8.39;56.10;102212.23;109260;1254;75850;-53
2024/01/23 15:07:57;;;;;;;10.30;4.00;;;;;;;8.44;59.29;102207.79;109164;1254;58348;-60
2024/01/23 15:10:26;;;;;;;5.10;2.80;;;;;;;8.65;63.16;102201.85;109220;1253;60368;-59
2024/01/23 15:12:53;;;;;;;7.90;2.80;;;;;;;8.74;62.68;102206.96;109234;1254;75076;-57
2024/01/23 15:15:23;;;;;;;12.10;5.00;;;;;;;8.77;64.15;102208.41;109222;1254;72670;-59
2024/01/23 15:17:55;;;;;;;9.20;4.20;;;;;;;8.99;67.76;102213.98;108958;1254;73146;-58
2024/01/23 15:20:22;;;;;;;8.20;3.00;;;;;;;9.15;67.55;102213.63;109183;1253;62512;-57
2024/01/23 15:22:51;;;;;;;7.60;2.80;;;;;;;9.19;66.60;102213.02;109226;1254;59956;-58
2024/01/23 15:25:19;;;;;;;6.90;2.80;;;;;;;9.19;65.82;102225.59;108899;1253;72347;-57
2024/01/23 15:27:47;;;;;;;4.80;2.70;;;;;;;9.18;64.58;102233.13;109204;1252;73836;-57
2024/01/23 15:30:14;;;;;;;4.30;2.20;;;;;;;9.17;63.45;102236.42;109250;1252;72945;-57
2024/01/23 15:32:42;;;;;;;4.40;3.00;;;;;;;9.16;62.39;102236.41;108981;1254;58065;-57
2024/01/23 15:35:14;;;;;;;6.00;2.50;;;;;;;9.14;61.44;102233.40;109016;1252;58558;-57
2024/01/23 15:37:43;;;;;;;5.30;2.70;;;;;;;9.15;60.48;102235.69;109383;1252;73073;-57
2024/01/23 15:40:11;;;;;;;4.30;2.20;;;;;;;9.13;59.58;102239.17;109189;1256;72349;-58
2024/01/23 15:42:39;;;;;;;7.10;2.30;;;;;;;9.10;58.92;102244.52;109283;1253;72459;-57
2024/01/23 15:45:07;;;;;;;5.40;2.40;;;;;;;9.08;58.37;102247.95;109038;1252;58917;-53
2024/01/23 15:47:36;;;;;;;8.20;2.50;;;;;;;9.06;57.78;102254.20;109037;1251;58525;-51
2024/01/23 15:50:05;;;;;;;5.90;2.40;;;;;;;9.04;57.40;102255.74;109227;1254;72266;-53
2024/01/23 15:52:33;;;;;;;5.00;2.60;;;;;;;9.02;57.03;102259.55;109295;1253;74981;-52
2024/01/23 15:55:02;;;;;;;8.90;2.50;;;;;;;9.00;56.79;102261.95;109299;1252;70739;-52
2024/01/23 15:57:30;;;;;;;7.20;2.50;;;;;;;8.97;56.43;102259.96;108961;1252;62432;-52
2024/01/23 15:59:58;;;;;;;5.20;2.10;;;;;;;8.92;56.23;102264.41;109224;1253;59828;-52
2024/01/23 16:02:26;;;;;;;4.40;2.20;;;;;;;8.90;55.97;102266.98;109326;1254;73135;-53
2024/01/23 16:04:53;;;;;;;6.10;2.40;;;;;;;8.86;55.84;102273.20;108930;1252;72518;-52
2024/01/23 16:07:22;;;;;;;5.80;2.40;;;;;;;8.84;55.72;102274.36;108984;1254;71503;-52
2024/01/23 16:09:49;;;;;;;3.30;2.00;;;;;;;8.80;55.50;102276.21;109196;1253;59994;-53
2024/01/23 16:12:19;;;;;;;4.40;2.10;;;;;;;8.79;55.47;102275.29;109019;1253;59899;-53
2024/01/23 16:14:46;;;;;;;6.90;2.30;;;;;;;8.78;55.51;102277.90;109015;1253;72946;-53
2024/01/23 16:17:15;;;;;;;7.90;2.80;;;;;;;8.78;55.40;102277.55;109200;1253;71979;-51
2024/01/23 16:19:43;;;;;;;4.40;2.50;;;;;;;8.77;55.24;102284.17;109206;1253;71996;-54
2024/01/23 16:22:11;;;;;;;6.00;2.50;;;;;;;8.74;55.13;102282.88;109313;1254;60726;-53
2024/01/23 16:24:40;;;;;;;5.10;2.60;;;;;;;8.71;55.17;102279.64;109238;1253;60798;-53
2024/01/23 16:27:09;;;;;;;6.30;3.00;;;;;;;8.70;55.00;102279.80;109174;1254;72554;-53
2024/01/23 16:29:36;;;;;;;3.50;2.10;;;;;;;8.68;54.99;102288.67;109255;1253;72535;-52
2024/01/23 16:32:04;;;;;;;4.50;2.30;;;;;;;8.66;54.96;102289.67;109188;1253;75370;-52
2024/01/23 16:34:32;;;;;;;6.90;2.70;;;;;;;8.64;54.90;102294.54;108992;1254;59173;-52
2024/01/23 16:37:00;;;;;;;6.10;2.30;;;;;;;8.63;54.80;102290.31;109229;1253;61400;-53
2024/01/23 16:39:27;;;;;;;4.50;2.00;;;;;;;8.62;54.74;102287.31;109219;1253;73332;-53
2024/01/23 16:41:55;;;;;;;5.20;2.30;;;;;;;8.61;54.67;102283.96;109256;1251;71870;-53
2024/01/23 16:44:24;;;;;;;6.40;2.60;;;;;;;8.62;54.69;102288.71;108945;1254;73755;-54
2024/01/23 16:46:51;;;;;;;4.00;1.90;;;;;;;8.65;54.58;102295.59;109228;1253;57846;-54
2024/01/23 16:49:20;;;;;;;4.10;2.10;;;;;;;8.65;54.48;102288.09;109240;1254;59723;-54
2024/01/23 16:51:48;;;;;;;3.60;1.90;;;;;;;8.66;54.43;102294.05;109302;1253;71601;-54
2024/01/23 16:54:17;;;;;;;4.50;1.90;;;;;;;8.65;54.35;102292.45;109186;1254;71175;-54
2024/01/23 16:56:46;;;;;;;5.90;2.40;;;;;;;8.65;54.26;102295.61;109151;1254;73041;-54
2024/01/23 16:59:14;;;;;;;5.30;2.60;;;;;;;8.65;54.23;102300.66;108615;1259;60621;-54
2024/01/23 17:01:42;;;;;;;5.50;2.50;;;;;;;8.65;54.08;102299.28;108661;1256;60184;-55
2024/01/23 17:04:10;;;;;;;5.10;1.80;;;;;;;8.65;54.22;102303.48;108806;1256;72509;-53
2024/01/23 17:06:38;;;;;;;5.00;1.80;;;;;;;8.65;54.06;102305.21;108715;1260;73468;-54
2024/01/23 17:09:06;;;;;;;5.20;2.10;;;;;;;8.63;54.04;102306.75;108850;1258;71209;-53
2024/01/23 17:11:33;;;;;;;7.40;2.10;;;;;;;8.61;54.01;102304.93;108818;1257;58455;-55
2024/01/23 17:14:02;;;;;;;3.40;1.90;;;;;;;8.58;54.02;102302.78;108740;1256;60196;-55
2024/01/23 17:16:36;;;;;;;7.40;2.40;;;;;;;8.57;54.15;102306.27;108787;1259;73925;-54
2024/01/23 17:19:04;;;;;;;7.40;1.90;;;;;;;8.56;54.27;102308.50;108724;1256;73264;-54
2024/01/23 17:21:32;;;;;;;5.80;2.20;;;;;;;8.56;54.08;102316.19;108581;1256;72596;-51
2024/01/23 17:24:00;;;;;;;5.90;2.00;;;;;;;8.56;54.13;102314.46;108633;1256;58296;-52
2024/01/23 17:26:28;;;;;;;4.60;1.80;;;;;;;8.55;54.09;102320.89;108651;1257;59154;-51
2024/01/23 17:28:56;;;;;;;4.90;2.20;;;;;;;8.53;54.18;102318.38;108878;1256;73500;-51
2024/01/23 17:31:24;;;;;;;5.10;2.30;;;;;;;8.51;54.13;102314.50;109141;1251;75453;-51
2024/01/23 17:33:52;;;;;;;6.40;3.00;;;;;;;8.50;54.23;102310.80;108924;1254;74693;-51
2024/01/23 17:36:19;;;;;;;5.60;1.90;;;;;;;8.49;54.15;102309.18;109224;1254;59578;-52
2024/01/23 17:38:48;;;;;;;6.50;2.10;;;;;;;8.44;54.21;102307.67;109231;1254;60355;-50
2024/01/23 17:41:16;;;;;;;5.10;2.40;;;;;;;8.42;54.27;102314.59;109227;1253;73322;-50
2024/01/23 17:43:44;;;;;;;5.70;2.10;;;;;;;8.40;54.32;102316.29;109240;1254;72208;-50
2024/01/23 17:46:14;;;;;;;6.80;2.90;;;;;;;8.39;54.34;102319.73;109009;1252;72826;-51
2024/01/23 17:48:41;;;;;;;5.50;2.00;;;;;;;8.35;54.35;102320.69;109178;1253;58471;-51
2024/01/23 17:51:10;;;;;;;4.60;2.10;;;;;;;8.35;54.35;102316.50;108961;1253;59796;-52
2024/01/23 17:53:38;;;;;;;7.60;2.80;;;;;;;8.37;54.39;102310.94;109258;1254;72748;-50
2024/01/23 17:56:05;;;;;;;5.60;2.10;;;;;;;8.37;54.44;102309.39;109204;1252;72060;-51
2024/01/23 17:58:34;;;;;;;6.10;2.50;;;;;;;8.38;54.37;102309.40;109222;1253;72703;-52
2024/01/23 18:01:03;;;;;;;5.90;2.50;;;;;;;8.38;54.38;102314.46;109206;1253;59436;-52
2024/01/23 18:03:31;;;;;;;3.80;2.10;;;;;;;8.37;54.37;102309.38;109225;1254;59305;-52
2024/01/23 18:05:59;;;;;;;6.20;2.30;;;;;;;8.38;54.34;102306.78;109261;1254;72576;-54
2024/01/23 18:08:27;;;;;;;3.60;2.10;;;;;;;8.39;54.30;102301.20;108959;1253;72245;-50
2024/01/23 18:10:55;;;;;;;3.50;1.50;;;;;;;8.35;54.37;102302.49;109010;1254;75331;-51
2024/01/23 18:13:23;;;;;;;4.50;2.30;;;;;;;8.34;54.33;102302.27;108991;1254;59640;-51
2024/01/23 18:15:51;;;;;;;6.70;2.10;;;;;;;8.34;54.44;102305.78;109195;1253;60140;-50
2024/01/23 18:18:18;;;;;;;5.50;1.80;;;;;;;8.35;54.48;102307.74;109211;1253;74643;-51
2024/01/23 18:20:47;;;;;;;7.40;2.10;;;;;;;8.37;54.37;102311.12;108971;1253;72613;-51
2024/01/23 18:23:14;;;;;;;5.30;1.90;;;;;;;8.37;54.33;102306.25;109215;1253;72539;-51
2024/01/23 18:25:42;;;;;;;9.10;2.30;;;;;;;8.35;54.32;102306.00;109177;1254;59421;-50
2024/01/23 18:28:10;;;;;;;3.90;1.60;;;;;;;8.36;54.38;102308.30;108955;1254;60397;-51
2024/01/23 18:30:38;;;;;;;6.90;2.60;;;;;;;8.37;54.39;102301.51;109233;1253;74345;-51
2024/01/23 18:33:05;;;;;;;5.70;1.90;;;;;;;8.38;54.22;102301.18;109240;1252;73188;-51
2024/01/23 18:35:33;;;;;;;5.10;2.10;;;;;;;8.35;54.28;102300.77;109306;1253;73150;-49
2024/01/23 18:38:01;;;;;;;10.00;2.20;;;;;;;8.36;54.24;102301.14;109242;1254;59143;-52
2024/01/23 18:40:29;;;;;;;6.40;2.40;;;;;;;8.36;54.19;102304.29;108903;1253;59185;-52
2024/01/23 18:42:56;;;;;;;9.40;2.40;;;;;;;8.35;54.23;102310.53;109233;1253;72523;-52
2024/01/23 18:45:24;;;;;;;5.70;1.70;;;;;;;8.35;54.34;102304.23;108936;1254;71957;-49
2024/01/23 18:47:52;;;;;;;6.90;1.80;;;;;;;8.36;54.34;102305.85;109200;1254;72823;-50
2024/01/23 18:50:20;;;;;;;5.70;2.30;;;;;;;8.36;55.00;102302.89;109218;1253;58465;-50
2024/01/23 18:52:48;;;;;;;11.80;2.60;;;;;;;8.40;57.72;102310.33;109205;1253;60506;-54
2024/01/23 18:55:16;;;;;;;5.40;1.70;;;;;;;8.43;57.64;102303.75;109230;1253;74458;-51
2024/01/23 18:57:43;;;;;;;6.10;2.20;;;;;;;8.40;57.57;102294.60;109046;1254;75230;-50
2024/01/23 19:00:12;;;;;;;5.90;2.40;;;;;;;8.42;57.35;102280.30;109234;1253;72610;-50
2024/01/23 19:02:40;;;;;;;4.30;2.10;;;;;;;8.43;56.89;102282.06;109184;1254;59695;-50
2024/01/23 19:05:08;;;;;;;6.40;2.40;;;;;;;8.43;56.50;102283.11;108996;1254;58633;-49
2024/01/23 19:07:37;;;;;;;6.40;2.20;;;;;;;8.42;56.12;102290.96;109217;1253;73228;-49
2024/01/23 19:10:06;;;;;;;6.20;2.00;;;;;;;8.39;55.92;102284.94;108947;1253;73405;-51
2024/01/23 19:12:34;;;;;;;6.50;2.00;;;;;;;8.34;55.70;102284.84;108934;1254;71645;-50
2024/01/23 19:15:02;;;;;;;3.80;1.90;;;;;;;8.26;55.66;102284.08;109213;1253;59164;-50
2024/01/23 19:17:30;;;;;;;5.80;1.70;;;;;;;8.19;55.65;102285.66;109213;1253;58616;-51
2024/01/23 19:19:57;;;;;;;5.90;2.20;;;;;;;8.16;55.70;102286.79;109237;1253;74308;-50
2024/01/23 19:22:26;;;;;;;5.90;2.00;;;;;;;8.14;55.68;102287.80;109250;1253;72701;-50
2024/01/23 19:24:53;;;;;;;6.70;2.00;;;;;;;8.12;55.58;102293.66;109204;1252;71330;-51
2024/01/23 19:27:22;;;;;;;6.70;1.80;;;;;;;8.09;55.57;102291.49;109229;1254;58280;-54
2024/01/23 19:29:50;;;;;;;5.50;1.90;;;;;;;8.11;55.62;102296.11;109263;1253;60453;-51
2024/01/23 19:32:18;;;;;;;7.40;1.90;;;;;;;8.15;55.59;102296.04;109254;1253;72631;-51
2024/01/23 19:34:45;;;;;;;5.20;2.30;;;;;;;8.13;55.58;102298.42;109243;1253;72622;-50
2024/01/23 19:37:13;;;;;;;4.00;2.20;;;;;;;8.09;55.64;102298.48;109273;1253;73737;-51
2024/01/23 19:39:41;;;;;;;6.90;2.10;;;;;;;8.08;55.65;102300.02;109236;1253;58772;-50
2024/01/23 19:42:09;;;;;;;8.30;2.20;;;;;;;8.07;55.67;102298.77;109210;1254;59033;-51
2024/01/23 19:44:38;;;;;;;7.80;1.90;;;;;;;8.08;55.67;102301.79;109238;1253;73660;-51
2024/01/23 19:47:06;;;;;;;5.30;2.10;;;;;;;8.10;55.68;102301.67;109033;1256;72067;-52
2024/01/23 19:49:37;;;;;;;10.00;2.20;;;;;;;8.14;55.58;102302.13;109241;1253;73478;-51
2024/01/23 19:52:06;;;;;;;4.10;2.10;;;;;;;8.17;55.51;102308.66;109003;1256;58305;-50
2024/01/23 19:54:34;;;;;;;3.40;1.80;;;;;;;8.16;55.49;102313.90;109376;1252;59791;-50
2024/01/23 19:57:02;;;;;;;4.40;2.00;;;;;;;8.16;55.53;102313.02;109411;1253;72337;-51
2024/01/23 19:59:29;;;;;;;5.50;2.00;;;;;;;8.18;55.47;102307.64;109090;1252;73022;-53
2024/01/23 20:01:57;;;;;;;5.30;2.20;;;;;;;8.20;55.36;102306.99;109034;1252;73424;-51
2024/01/23 20:04:25;;;;;;;6.70;1.90;;;;;;;8.23;55.25;102313.20;109298;1253;58476;-51
2024/01/23 20:06:54;;;;;;;4.90;2.30;;;;;;;8.27;55.22;102313.48;109315;1256;59134;-51
2024/01/23 20:09:22;;;;;;;5.80;2.50;;;;;;;8.31;55.05;102318.48;109282;1252;74112;-52
2024/01/23 20:11:50;;;;;;;4.00;2.30;;;;;;;8.33;54.98;102317.48;109099;1253;72721;-51
2024/01/23 20:14:18;;;;;;;8.20;3.10;;;;;;;8.36;55.71;102315.98;109297;1252;72981;-53
2024/01/23 20:16:46;;;;;;;5.90;3.30;;;;;;;8.45;60.30;102319.06;109228;1252;58312;-54
2024/01/23 20:19:14;;;;;;;6.40;3.20;;;;;;;8.56;61.71;102317.23;109311;1253;60459;-53
2024/01/23 20:21:42;;;;;;;8.40;2.70;;;;;;;8.62;61.79;102320.54;108995;1254;74427;-54
2024/01/23 20:24:10;;;;;;;5.10;3.40;;;;;;;8.65;61.66;102327.08;109292;1253;71758;-53
2024/01/23 20:26:39;;;;;;;6.20;2.80;;;;;;;8.66;61.02;102333.94;109303;1253;72633;-51
2024/01/23 20:29:07;;;;;;;5.50;3.20;;;;;;;8.69;60.51;102338.20;109229;1252;58204;-52
2024/01/23 20:31:35;;;;;;;4.60;2.60;;;;;;;8.71;59.70;102342.80;109226;1253;60044;-50
2024/01/23 20:34:03;;;;;;;7.10;2.50;;;;;;;8.70;58.99;102345.40;109165;1256;76159;-52
2024/01/23 20:36:30;;;;;;;6.20;2.80;;;;;;;8.68;58.45;102348.16;109248;1253;71949;-51
2024/01/23 20:39:03;;;;;;;7.40;2.50;;;;;;;8.65;57.94;102351.05;109309;1253;72502;-51
2024/01/23 20:41:31;;;;;;;3.90;2.80;;;;;;;8.62;57.65;102347.14;109261;1253;61790;-51
2024/01/23 20:43:59;;;;;;;5.90;2.80;;;;;;;8.59;57.35;102349.33;109051;1252;58582;-54
2024/01/23 20:46:26;;;;;;;6.80;2.80;;;;;;;8.57;57.29;102357.16;109301;1253;74940;-53
2024/01/23 20:48:55;;;;;;;7.60;2.90;;;;;;;8.58;57.19;102364.17;109332;1252;73129;-53
2024/01/23 20:51:24;;;;;;;4.70;2.80;;;;;;;8.59;56.93;102364.55;109231;1254;72363;-53
2024/01/23 20:53:52;;;;;;;5.50;2.50;;;;;;;8.57;56.77;102364.33;109278;1253;62733;-53
2024/01/23 20:56:19;;;;;;;6.40;2.80;;;;;;;8.54;56.64;102370.35;109384;1252;59189;-53
2024/01/23 20:58:47;;;;;;;5.20;2.50;;;;;;;8.51;56.61;102368.00;109340;1253;72456;-52
2024/01/23 21:01:15;;;;;;;6.10;2.40;;;;;;;8.50;56.57;102375.48;109269;1254;75229;-53
2024/01/23 21:03:43;;;;;;;6.90;2.50;;;;;;;8.48;56.44;102378.06;109303;1253;71876;-52
2024/01/23 21:06:11;;;;;;;7.00;3.10;;;;;;;8.41;56.47;102377.15;109226;1252;60269;-52
2024/01/23 21:08:40;;;;;;;4.50;2.80;;;;;;;8.35;56.52;102369.63;109273;1253;58932;-49
2024/01/23 21:11:08;;;;;;;5.40;2.70;;;;;;;8.31;56.55;102366.04;109250;1253;74418;-52
2024/01/23 21:13:35;;;;;;;5.20;2.70;;;;;;;8.28;56.56;102365.96;109302;1252;71455;-51
2024/01/23 21:16:07;;;;;;;6.30;2.60;;;;;;;8.30;56.61;102363.02;109324;1253;72662;-50
2024/01/23 21:18:35;;;;;;;8.90;3.60;;;;;;;8.34;57.28;102363.67;109328;1253;59270;-52
2024/01/23 21:21:04;;;;;;;8.90;3.10;;;;;;;8.46;61.64;102366.11;109279;1253;59949;-50
2024/01/23 21:23:31;;;;;;;4.60;2.70;;;;;;;8.57;62.00;102365.88;109109;1252;73962;-52
2024/01/23 21:25:59;;;;;;;7.20;3.30;;;;;;;8.60;61.94;102362.80;109349;1251;72026;-52
2024/01/23 21:28:27;;;;;;;9.70;3.30;;;;;;;8.62;61.75;102363.41;109313;1253;71723;-51
2024/01/23 21:30:55;;;;;;;8.40;3.50;;;;;;;8.63;61.17;102362.91;108975;1252;60123;-52
2024/01/23 21:33:27;;;;;;;15.40;3.40;;;;;;;8.63;60.55;102368.34;109313;1252;60071;-51
2024/01/23 21:35:55;;;;;;;12.40;5.20;;;;;;;8.60;61.15;102364.57;109300;1254;73894;-51
2024/01/23 21:38:23;;;;;;;10.60;4.30;;;;;;;8.65;65.17;102365.05;109152;1252;72377;-51
2024/01/23 21:40:52;;;;;;;12.50;3.90;;;;;;;8.68;65.49;102370.89;109371;1252;71449;-52
2024/01/23 21:43:20;;;;;;;7.40;3.30;;;;;;;8.64;65.00;102370.29;109060;1252;58869;-52
2024/01/23 21:45:47;;;;;;;10.90;4.50;;;;;;;8.61;64.75;102369.14;108967;1253;60119;-52
2024/01/23 21:48:15;;;;;;;7.70;4.40;;;;;;;8.63;64.23;102372.19;109062;1253;72656;-53
2024/01/23 21:50:43;;;;;;;8.80;3.70;;;;;;;8.65;63.54;102368.89;109100;1254;72765;-52
2024/01/23 21:53:11;;;;;;;8.30;3.60;;;;;;;8.63;62.65;102370.09;109318;1253;71536;-50
2024/01/23 21:55:38;;;;;;;9.40;4.20;;;;;;;8.61;62.00;102375.43;109319;1254;58997;-54
2024/01/23 21:58:06;;;;;;;8.20;3.20;;;;;;;8.55;61.28;102380.38;109288;1254;58912;-52
2024/01/23 22:00:34;;;;;;;6.40;3.60;;;;;;;8.50;60.93;102380.57;109415;1253;73270;-53
2024/01/23 22:03:02;;;;;;;6.90;3.40;;;;;;;8.47;60.53;102375.95;109360;1254;71381;-52
2024/01/23 22:05:30;;;;;;;4.90;3.00;;;;;;;8.43;59.99;102374.41;109357;1253;72737;-52
2024/01/23 22:07:58;;;;;;;8.00;4.10;;;;;;;8.34;59.58;102371.55;109340;1252;59137;-53
2024/01/23 22:10:26;;;;;;;4.50;3.00;;;;;;;8.25;59.21;102367.28;109161;1252;60236;-55
2024/01/23 22:12:54;;;;;;;5.40;3.50;;;;;;;8.16;59.13;102365.81;109106;1254;72654;-54
2024/01/23 22:15:23;;;;;;;7.70;3.40;;;;;;;8.12;59.18;102370.77;109375;1252;71517;-54
2024/01/23 22:17:51;;;;;;;7.30;3.40;;;;;;;8.11;59.15;102365.67;109391;1254;72662;-56
2024/01/23 22:20:19;;;;;;;8.00;4.20;;;;;;;8.10;58.91;102360.04;109375;1252;59309;-56
2024/01/23 22:22:47;;;;;;;10.90;3.70;;;;;;;8.09;58.84;102361.39;109407;1252;60193;-56
2024/01/23 22:25:15;;;;;;;5.20;3.80;;;;;;;8.07;58.87;102356.29;109354;1256;73906;-55
2024/01/23 22:27:43;;;;;;;7.00;3.80;;;;;;;8.06;58.61;102348.57;109404;1253;72828;-55
2024/01/23 22:30:11;;;;;;;7.10;3.50;;;;;;;8.01;58.53;102352.98;109397;1252;72751;-55
2024/01/23 22:32:39;;;;;;;6.90;3.40;;;;;;;7.94;58.58;102352.41;109391;1252;58219;-55
2024/01/23 22:35:07;;;;;;;7.40;3.70;;;;;;;7.92;58.58;102350.44;109354;1252;60538;-55
2024/01/23 22:37:36;;;;;;;5.70;3.20;;;;;;;7.88;58.48;102349.65;109133;1254;72585;-53
2024/01/23 22:40:04;;;;;;;7.40;3.90;;;;;;;7.84;58.36;102348.27;109352;1253;70859;-54
2024/01/23 22:42:32;;;;;;;6.40;3.80;;;;;;;7.80;58.39;102341.34;109367;1253;72950;-53
2024/01/23 22:44:59;;;;;;;5.40;3.10;;;;;;;7.76;58.44;102341.61;109086;1256;59303;-55
2024/01/23 22:47:27;;;;;;;5.50;3.80;;;;;;;7.73;58.43;102343.42;109310;1252;58854;-54
2024/01/23 22:49:55;;;;;;;5.40;3.30;;;;;;;7.71;58.30;102344.58;109333;1256;72600;-54
2024/01/23 22:52:23;;;;;;;6.10;3.30;;;;;;;7.69;58.41;102347.14;109379;1252;72926;-55
2024/01/23 22:54:51;;;;;;;7.90;3.50;;;;;;;7.70;58.24;102345.59;109255;1253;72749;-52
2024/01/23 22:57:19;;;;;;;4.30;3.40;;;;;;;7.66;58.15;102343.23;109323;1253;59303;-53
2024/01/23 22:59:46;;;;;;;6.40;3.70;;;;;;;7.63;58.21;102335.78;109331;1253;59414;-53
2024/01/23 23:02:14;;;;;;;6.00;3.70;;;;;;;7.63;58.23;102337.54;109425;1253;73928;-54
2024/01/23 23:04:43;;;;;;;6.80;3.80;;;;;;;7.64;58.27;102337.23;109342;1253;72867;-53
2024/01/23 23:07:11;;;;;;;6.60;3.60;;;;;;;7.65;58.14;102334.64;109319;1253;72723;-53
2024/01/23 23:09:38;;;;;;;7.00;3.50;;;;;;;7.67;58.13;102332.41;109382;1253;58309;-53
2024/01/23 23:12:06;;;;;;;6.20;3.50;;;;;;;7.70;58.00;102329.38;109308;1253;58795;-54
2024/01/23 23:14:35;;;;;;;10.50;3.30;;;;;;;7.70;57.97;102327.45;109355;1253;71648;-52
2024/01/23 23:17:03;;;;;;;6.60;3.90;;;;;;;7.71;57.86;102328.34;109395;1254;71710;-52
2024/01/23 23:19:31;;;;;;;7.80;3.20;;;;;;;7.71;57.75;102334.30;109264;1257;71478;-54
2024/01/23 23:21:59;;;;;;;9.40;4.90;;;;;;;7.69;57.74;102338.62;109331;1253;59327;-53
2024/01/23 23:24:26;;;;;;;7.50;4.50;;;;;;;7.67;57.64;102342.55;109378;1253;60117;-53
2024/01/23 23:26:54;;;;;;;7.20;3.50;;;;;;;7.62;57.66;102340.64;109330;1253;73903;-54
2024/01/23 23:29:22;;;;;;;6.80;3.30;;;;;;;7.58;57.75;102340.36;109438;1253;71688;-52
2024/01/23 23:31:50;;;;;;;4.00;3.10;;;;;;;7.58;57.85;102337.23;109337;1253;72797;-53
2024/01/23 23:34:17;;;;;;;6.90;3.10;;;;;;;7.59;57.77;102334.30;109320;1255;58194;-53
2024/01/23 23:36:47;;;;;;;4.50;3.20;;;;;;;7.59;57.69;102336.73;109467;1253;58832;-53
2024/01/23 23:39:14;;;;;;;8.00;3.80;;;;;;;7.55;57.83;102337.30;109313;1253;73957;-53
2024/01/23 23:41:42;;;;;;;4.50;2.90;;;;;;;7.57;57.83;102338.05;109331;1253;70991;-53
2024/01/23 23:44:10;;;;;;;6.10;3.60;;;;;;;7.54;57.66;102343.56;109333;1254;72703;-53
2024/01/23 23:46:37;;;;;;;5.70;3.00;;;;;;;7.48;57.77;102339.89;109341;1253;59908;-53
2024/01/23 23:49:05;;;;;;;8.20;4.10;;;;;;;7.46;57.73;102338.79;109354;1254;59138;-54
2024/01/23 23:51:33;;;;;;;8.50;3.90;;;;;;;7.42;57.81;102344.23;109316;1254;73910;-52
2024/01/23 23:54:00;;;;;;;6.90;3.80;;;;;;;7.41;57.89;102341.77;109336;1253;73098;-53
2024/01/23 23:56:28;;;;;;;7.40;3.80;;;;;;;7.42;57.89;102342.31;109301;1254;72759;-53
2024/01/23 23:58:56;;;;;;;7.20;3.10;;;;;;;7.43;57.95;102349.16;109401;1252;59697;-52
